createdAt,value
2019-03-28T00:00:27.424Z,7.75
2019-03-28T00:01:27.411Z,7.69
2019-03-28T00:02:27.408Z,7.79
2019-03-28T00:03:27.420Z,7.74
2019-03-28T00:04:27.383Z,7.72
2019-03-28T00:05:27.376Z,7.62
2019-03-28T00:06:27.360Z,7.63
2019-03-28T00:07:27.348Z,7.62
2019-03-28T00:08:28.219Z,7.59
2019-03-28T00:09:27.331Z,7.62
2019-03-28T00:10:27.321Z,7.56
2019-03-28T00:11:27.310Z,7.62
2019-03-28T00:12:27.293Z,7.63
2019-03-28T00:13:27.307Z,7.49
2019-03-28T00:14:27.274Z,7.67
2019-03-28T00:15:27.261Z,7.52
2019-03-28T00:16:27.255Z,7.52
2019-03-28T00:17:27.239Z,7.50
2019-03-28T00:18:27.739Z,7.55
2019-03-28T00:19:27.220Z,7.55
2019-03-28T00:20:27.207Z,7.53
2019-03-28T00:21:27.195Z,7.55
2019-03-28T00:22:27.188Z,7.59
2019-03-28T00:23:27.202Z,7.52
2019-03-28T00:24:27.167Z,7.56
2019-03-28T00:25:27.162Z,7.49
2019-03-28T00:26:30.356Z,7.55
2019-03-28T00:27:27.134Z,7.55
2019-03-28T00:28:27.144Z,7.49
2019-03-28T00:29:27.107Z,7.44
2019-03-28T00:30:27.101Z,7.47
2019-03-28T00:31:27.090Z,7.45
2019-03-28T00:32:27.074Z,7.47
2019-03-28T00:33:27.093Z,7.49
2019-03-28T00:34:27.050Z,7.52
2019-03-28T00:35:27.044Z,7.49
2019-03-28T00:36:27.032Z,7.47
2019-03-28T00:37:27.023Z,7.53
2019-03-28T00:38:27.035Z,7.44
2019-03-28T00:39:27.001Z,7.40
2019-03-28T00:40:26.988Z,7.42
2019-03-28T00:41:26.976Z,7.47
2019-03-28T00:42:26.970Z,7.47
2019-03-28T00:43:26.979Z,7.35
2019-03-28T00:44:26.949Z,7.42
2019-03-28T00:45:26.937Z,7.40
2019-03-28T00:46:26.923Z,7.35
2019-03-28T00:47:26.911Z,7.27
2019-03-28T00:48:27.215Z,7.35
2019-03-28T00:49:26.896Z,7.38
2019-03-28T00:50:26.880Z,7.32
2019-03-28T00:51:26.874Z,7.29
2019-03-28T00:52:26.862Z,7.42
2019-03-28T00:53:26.878Z,7.37
2019-03-28T00:54:26.835Z,7.38
2019-03-28T00:55:26.827Z,7.37
2019-03-28T00:56:27.381Z,7.32
2019-03-28T00:57:26.804Z,7.38
2019-03-28T00:58:26.822Z,7.41
2019-03-28T00:59:26.781Z,7.42
2019-03-28T01:00:26.775Z,7.53
2019-03-28T01:01:26.763Z,7.50
2019-03-28T01:02:26.753Z,7.50
2019-03-28T01:03:26.800Z,7.49
2019-03-28T01:04:27.239Z,7.55
2019-03-28T01:05:26.716Z,7.56
2019-03-28T01:06:26.709Z,7.47
2019-03-28T01:07:26.702Z,7.49
2019-03-28T01:08:26.685Z,7.42
2019-03-28T01:09:26.702Z,7.50
2019-03-28T01:10:26.664Z,7.44
2019-03-28T01:11:26.652Z,7.37
2019-03-28T01:12:27.324Z,7.42
2019-03-28T01:13:26.628Z,7.38
2019-03-28T01:14:26.650Z,7.45
2019-03-28T01:15:26.608Z,7.34
2019-03-28T01:16:26.600Z,7.38
2019-03-28T01:17:26.585Z,7.40
2019-03-28T01:18:26.580Z,7.35
2019-03-28T01:19:26.594Z,7.37
2019-03-28T01:20:26.555Z,7.32
2019-03-28T01:21:26.547Z,7.35
2019-03-28T01:22:26.533Z,7.32
2019-03-28T01:23:26.521Z,7.27
2019-03-28T01:24:26.538Z,7.34
2019-03-28T01:25:26.501Z,7.41
2019-03-28T01:26:26.487Z,7.38
2019-03-28T01:27:26.475Z,7.35
2019-03-28T01:28:26.462Z,7.37
2019-03-28T01:29:26.485Z,7.42
2019-03-28T01:30:26.452Z,7.40
2019-03-28T01:31:26.436Z,7.42
2019-03-28T01:32:26.421Z,7.38
2019-03-28T01:33:26.412Z,7.42
2019-03-28T01:34:26.428Z,7.45
2019-03-28T01:35:26.398Z,7.42
2019-03-28T01:36:26.388Z,7.37
2019-03-28T01:37:26.368Z,7.40
2019-03-28T01:38:26.367Z,7.44
2019-03-28T01:39:26.371Z,7.42
2019-03-28T01:40:26.396Z,7.47
2019-03-28T01:41:26.324Z,7.52
2019-03-28T01:42:26.318Z,7.42
2019-03-28T01:43:27.157Z,7.59
2019-03-28T01:44:26.326Z,7.55
2019-03-28T01:45:26.292Z,7.58
2019-03-28T01:46:26.273Z,7.47
2019-03-28T01:47:26.262Z,7.52
2019-03-28T01:48:26.254Z,7.52
2019-03-28T01:49:26.266Z,7.45
2019-03-28T01:50:26.234Z,7.53
2019-03-28T01:51:26.221Z,7.63
2019-03-28T01:52:26.206Z,7.59
2019-03-28T01:53:26.206Z,7.60
2019-03-28T01:54:26.218Z,7.62
2019-03-28T01:55:26.179Z,7.66
2019-03-28T01:56:26.164Z,7.60
2019-03-28T01:57:26.155Z,7.62
2019-03-28T01:58:26.150Z,7.74
2019-03-28T01:59:26.158Z,7.56
2019-03-28T02:00:26.119Z,7.66
2019-03-28T02:01:26.111Z,7.74
2019-03-28T02:02:26.115Z,7.79
2019-03-28T02:03:26.088Z,7.77
2019-03-28T02:04:26.138Z,7.74
2019-03-28T02:05:26.070Z,7.71
2019-03-28T02:06:26.055Z,7.77
2019-03-28T02:07:26.045Z,7.72
2019-03-28T02:08:26.037Z,7.75
2019-03-28T02:09:26.067Z,7.72
2019-03-28T02:10:26.013Z,7.75
2019-03-28T02:11:26.001Z,7.71
2019-03-28T02:12:25.990Z,7.69
2019-03-28T02:13:25.985Z,7.78
2019-03-28T02:14:25.999Z,7.74
2019-03-28T02:15:25.957Z,7.67
2019-03-28T02:16:25.950Z,7.72
2019-03-28T02:17:25.935Z,7.63
2019-03-28T02:18:25.927Z,7.75
2019-03-28T02:19:25.940Z,7.75
2019-03-28T02:20:25.903Z,7.71
2019-03-28T02:21:25.900Z,7.77
2019-03-28T02:22:25.889Z,7.71
2019-03-28T02:23:25.875Z,7.63
2019-03-28T02:24:26.338Z,7.60
2019-03-28T02:25:25.851Z,7.58
2019-03-28T02:26:25.839Z,7.60
2019-03-28T02:27:26.062Z,7.62
2019-03-28T02:28:25.826Z,7.60
2019-03-28T02:29:25.842Z,7.59
2019-03-28T02:30:25.796Z,7.60
2019-03-28T02:31:25.787Z,7.60
2019-03-28T02:32:25.775Z,7.58
2019-03-28T02:33:25.768Z,7.63
2019-03-28T02:34:25.791Z,7.72
2019-03-28T02:35:25.743Z,7.74
2019-03-28T02:36:25.731Z,7.62
2019-03-28T02:37:25.718Z,7.60
2019-03-28T02:38:25.712Z,7.63
2019-03-28T02:39:25.746Z,7.74
2019-03-28T02:40:25.688Z,7.75
2019-03-28T02:41:25.698Z,7.60
2019-03-28T02:42:25.666Z,7.59
2019-03-28T02:43:25.652Z,7.66
2019-03-28T02:44:25.673Z,7.59
2019-03-28T02:45:25.639Z,7.62
2019-03-28T02:46:25.624Z,7.62
2019-03-28T02:47:25.610Z,7.62
2019-03-28T02:48:25.598Z,7.63
2019-03-28T02:49:25.614Z,7.67
2019-03-28T02:50:25.580Z,7.63
2019-03-28T02:51:25.569Z,7.60
2019-03-28T02:52:25.556Z,7.60
2019-03-28T02:53:25.548Z,7.55
2019-03-28T02:54:25.635Z,7.58
2019-03-28T02:55:25.531Z,7.53
2019-03-28T02:56:25.517Z,7.55
2019-03-28T02:57:40.135Z,7.60
2019-03-28T02:58:26.493Z,7.53
2019-03-28T02:59:25.512Z,7.53
2019-03-28T03:00:25.468Z,7.59
2019-03-28T03:01:25.458Z,7.67
2019-03-28T03:02:25.447Z,7.49
2019-03-28T03:03:25.437Z,7.59
2019-03-28T03:04:25.486Z,7.53
2019-03-28T03:05:25.414Z,7.55
2019-03-28T03:06:25.406Z,7.67
2019-03-28T03:07:25.394Z,7.59
2019-03-28T03:08:25.390Z,7.52
2019-03-28T03:09:25.792Z,7.59
2019-03-28T03:10:25.360Z,7.63
2019-03-28T03:11:25.349Z,7.62
2019-03-28T03:12:25.342Z,7.60
2019-03-28T03:13:25.336Z,7.60
2019-03-28T03:14:25.350Z,7.55
2019-03-28T03:15:25.307Z,7.62
2019-03-28T03:16:25.295Z,7.67
2019-03-28T03:17:25.300Z,7.55
2019-03-28T03:18:25.273Z,7.63
2019-03-28T03:19:25.871Z,7.53
2019-03-28T03:20:25.252Z,7.59
2019-03-28T03:21:25.237Z,7.62
2019-03-28T03:22:25.232Z,7.59
2019-03-28T03:23:25.220Z,7.56
2019-03-28T03:24:25.239Z,7.58
2019-03-28T03:25:25.205Z,7.66
2019-03-28T03:26:25.187Z,7.58
2019-03-28T03:27:25.183Z,7.62
2019-03-28T03:28:25.167Z,7.66
2019-03-28T03:29:25.176Z,7.60
2019-03-28T03:30:25.148Z,7.63
2019-03-28T03:31:25.605Z,7.63
2019-03-28T03:32:25.117Z,7.59
2019-03-28T03:33:25.115Z,7.60
2019-03-28T03:34:25.137Z,7.75
2019-03-28T03:35:25.093Z,7.59
2019-03-28T03:36:25.077Z,7.69
2019-03-28T03:37:25.072Z,7.77
2019-03-28T03:38:25.053Z,7.77
2019-03-28T03:39:25.071Z,7.79
2019-03-28T03:40:25.032Z,7.77
2019-03-28T03:41:25.029Z,7.77
2019-03-28T03:42:25.011Z,7.77
2019-03-28T03:43:25.000Z,7.79
2019-03-28T03:44:25.018Z,7.81
2019-03-28T03:45:24.979Z,7.79
2019-03-28T03:46:24.969Z,7.82
2019-03-28T03:47:24.961Z,7.75
2019-03-28T03:48:24.951Z,7.81
2019-03-28T03:49:24.969Z,7.79
2019-03-28T03:50:24.926Z,7.81
2019-03-28T03:51:24.912Z,7.81
2019-03-28T03:52:24.901Z,7.63
2019-03-28T03:53:24.897Z,7.71
2019-03-28T03:54:24.910Z,7.69
2019-03-28T03:55:24.873Z,7.66
2019-03-28T03:56:24.858Z,7.62
2019-03-28T03:57:24.846Z,7.59
2019-03-28T03:58:24.837Z,7.63
2019-03-28T03:59:24.856Z,7.58
2019-03-28T04:00:24.822Z,7.63
2019-03-28T04:01:24.804Z,7.75
2019-03-28T04:02:24.797Z,7.72
2019-03-28T04:03:24.785Z,7.75
2019-03-28T04:04:24.805Z,7.63
2019-03-28T04:05:24.770Z,7.66
2019-03-28T04:06:24.753Z,7.72
2019-03-28T04:07:24.754Z,7.69
2019-03-28T04:08:24.735Z,7.75
2019-03-28T04:09:24.749Z,7.75
2019-03-28T04:10:24.712Z,7.78
2019-03-28T04:11:24.698Z,7.67
2019-03-28T04:12:24.683Z,7.78
2019-03-28T04:13:24.682Z,7.77
2019-03-28T04:14:24.691Z,7.72
2019-03-28T04:15:24.662Z,7.82
2019-03-28T04:16:24.641Z,7.75
2019-03-28T04:17:24.635Z,7.82
2019-03-28T04:18:24.626Z,7.74
2019-03-28T04:19:24.637Z,7.75
2019-03-28T04:20:25.079Z,7.71
2019-03-28T04:21:24.592Z,7.81
2019-03-28T04:22:24.578Z,7.81
2019-03-28T04:23:24.584Z,7.81
2019-03-28T04:24:24.586Z,7.82
2019-03-28T04:25:24.544Z,7.89
2019-03-28T04:26:24.529Z,7.87
2019-03-28T04:27:24.526Z,7.81
2019-03-28T04:28:31.636Z,7.82
2019-03-28T04:29:25.526Z,7.82
2019-03-28T04:30:24.488Z,7.84
2019-03-28T04:31:24.497Z,7.81
2019-03-28T04:32:24.463Z,7.81
2019-03-28T04:33:24.456Z,7.82
2019-03-28T04:34:24.477Z,7.84
2019-03-28T04:35:24.431Z,7.78
2019-03-28T04:36:24.422Z,7.72
2019-03-28T04:37:24.411Z,7.69
2019-03-28T04:38:24.662Z,7.78
2019-03-28T04:39:24.418Z,7.74
2019-03-28T04:40:24.387Z,7.82
2019-03-28T04:41:24.368Z,7.75
2019-03-28T04:42:24.357Z,7.75
2019-03-28T04:43:25.541Z,7.74
2019-03-28T04:44:24.367Z,7.74
2019-03-28T04:45:24.330Z,7.74
2019-03-28T04:46:24.314Z,7.77
2019-03-28T04:47:24.303Z,7.79
2019-03-28T04:48:24.292Z,7.74
2019-03-28T04:49:24.304Z,7.62
2019-03-28T04:50:24.276Z,7.69
2019-03-28T04:51:24.263Z,7.58
2019-03-28T04:52:24.247Z,7.63
2019-03-28T04:53:24.237Z,7.59
2019-03-28T04:54:24.252Z,7.66
2019-03-28T04:55:24.216Z,7.60
2019-03-28T04:56:24.204Z,7.74
2019-03-28T04:57:24.196Z,7.71
2019-03-28T04:58:24.187Z,7.60
2019-03-28T04:59:24.202Z,7.58
2019-03-28T05:00:24.161Z,7.60
2019-03-28T05:01:24.180Z,7.60
2019-03-28T05:02:24.138Z,7.62
2019-03-28T05:03:24.129Z,7.66
2019-03-28T05:04:24.146Z,7.72
2019-03-28T05:05:24.107Z,7.62
2019-03-28T05:06:24.365Z,7.59
2019-03-28T05:07:24.083Z,7.66
2019-03-28T05:08:24.073Z,7.59
2019-03-28T05:09:24.094Z,7.62
2019-03-28T05:10:24.060Z,7.62
2019-03-28T05:11:24.043Z,7.62
2019-03-28T05:12:24.037Z,7.66
2019-03-28T05:13:24.051Z,7.59
2019-03-28T05:14:24.038Z,7.52
2019-03-28T05:15:24.001Z,7.66
2019-03-28T05:16:23.987Z,7.63
2019-03-28T05:17:23.977Z,7.52
2019-03-28T05:18:23.967Z,7.63
2019-03-28T05:19:23.981Z,7.63
2019-03-28T05:20:23.943Z,7.56
2019-03-28T05:21:23.932Z,7.62
2019-03-28T05:23:40.486Z,7.59
2019-03-28T05:24:39.906Z,7.53
2019-03-28T05:25:39.855Z,7.59
2019-03-28T05:26:39.848Z,7.66
2019-03-28T05:27:39.835Z,7.58
2019-03-28T05:28:39.871Z,7.66
2019-03-28T05:29:39.842Z,7.50
2019-03-28T05:30:39.800Z,7.52
2019-03-28T05:31:39.794Z,7.53
2019-03-28T05:32:39.785Z,7.55
2019-03-28T05:33:39.772Z,7.52
2019-03-28T05:34:39.826Z,7.52
2019-03-28T05:35:39.750Z,7.50
2019-03-28T05:36:39.737Z,7.52
2019-03-28T05:37:39.745Z,7.53
2019-03-28T05:38:39.717Z,7.52
2019-03-28T05:39:39.743Z,7.49
2019-03-28T05:40:39.710Z,7.52
2019-03-28T05:41:39.689Z,7.50
2019-03-28T05:42:39.674Z,7.60
2019-03-28T05:43:39.680Z,7.62
2019-03-28T05:44:39.684Z,7.63
2019-03-28T05:45:39.650Z,7.62
2019-03-28T05:46:39.652Z,7.60
2019-03-28T05:47:39.629Z,7.72
2019-03-28T05:48:39.627Z,7.72
2019-03-28T05:49:39.660Z,7.79
2019-03-28T05:50:39.605Z,7.75
2019-03-28T05:51:39.600Z,7.71
2019-03-28T05:52:39.587Z,7.72
2019-03-28T05:53:39.568Z,7.85
2019-03-28T05:54:39.598Z,7.84
2019-03-28T05:55:39.547Z,7.81
2019-03-28T05:56:39.542Z,7.84
2019-03-28T05:57:39.536Z,7.94
2019-03-28T05:58:39.524Z,7.84
2019-03-28T05:59:39.540Z,7.93
2019-03-28T06:00:40.283Z,7.97
2019-03-28T06:01:39.488Z,7.94
2019-03-28T06:02:39.476Z,8.00
2019-03-28T06:03:39.478Z,8.02
2019-03-28T06:04:39.495Z,8.00
2019-03-28T06:05:39.455Z,8.03
2019-03-28T06:06:39.438Z,8.15
2019-03-28T06:07:39.418Z,8.08
2019-03-28T06:08:39.417Z,8.11
2019-03-28T06:09:40.344Z,8.11
2019-03-28T06:10:39.459Z,8.10
2019-03-28T06:11:39.381Z,8.11
2019-03-28T06:12:39.365Z,8.15
2019-03-28T06:13:39.371Z,8.12
2019-03-28T06:14:39.343Z,8.17
2019-03-28T06:15:41.017Z,8.21
2019-03-28T06:16:39.321Z,8.15
2019-03-28T06:17:39.314Z,8.28
2019-03-28T06:18:39.368Z,8.25
2019-03-28T06:19:39.296Z,8.33
2019-03-28T06:20:39.305Z,8.36
2019-03-28T06:21:39.682Z,8.40
2019-03-28T06:22:39.651Z,8.45
2019-03-28T06:23:39.463Z,8.48
2019-03-28T06:24:39.237Z,8.54
2019-03-28T06:25:40.940Z,8.58
2019-03-28T06:26:39.220Z,8.53
2019-03-28T06:27:39.224Z,8.54
2019-03-28T06:28:39.197Z,8.65
2019-03-28T06:29:39.188Z,8.55
2019-03-28T06:30:39.207Z,8.55
2019-03-28T06:31:39.167Z,8.69
2019-03-28T06:32:43.362Z,8.75
2019-03-28T06:33:39.153Z,8.69
2019-03-28T06:34:39.129Z,8.76
2019-03-28T06:35:39.144Z,8.87
2019-03-28T06:36:39.114Z,8.79
2019-03-28T06:37:39.102Z,8.87
2019-03-28T06:38:39.095Z,8.97
2019-03-28T06:39:39.101Z,8.93
2019-03-28T06:40:39.129Z,9.02
2019-03-28T06:41:39.053Z,9.06
2019-03-28T06:42:39.044Z,9.12
2019-03-28T06:43:41.958Z,9.27
2019-03-28T06:44:39.034Z,9.30
2019-03-28T06:45:39.056Z,9.16
2019-03-28T06:46:39.004Z,9.18
2019-03-28T06:47:39.008Z,9.25
2019-03-28T06:48:38.984Z,9.21
2019-03-28T06:49:38.981Z,9.12
2019-03-28T06:50:38.986Z,9.10
2019-03-28T06:51:38.953Z,9.02
2019-03-28T06:52:38.947Z,8.97
2019-03-28T06:53:38.932Z,8.96
2019-03-28T06:54:38.928Z,8.91
2019-03-28T06:55:38.937Z,8.88
2019-03-28T06:56:38.913Z,8.87
2019-03-28T06:57:38.890Z,8.84
2019-03-28T06:58:38.891Z,8.94
2019-03-28T06:59:38.876Z,8.94
2019-03-28T07:00:38.886Z,8.90
2019-03-28T07:01:38.861Z,8.90
2019-03-28T07:02:38.855Z,8.87
2019-03-28T07:03:38.832Z,8.87
2019-03-28T07:04:38.823Z,8.86
2019-03-28T07:05:38.929Z,8.79
2019-03-28T07:06:38.802Z,8.76
2019-03-28T07:07:38.789Z,8.76
2019-03-28T07:08:38.771Z,8.83
2019-03-28T07:09:38.781Z,8.88
2019-03-28T07:10:38.803Z,8.87
2019-03-28T07:11:38.746Z,8.86
2019-03-28T07:12:38.745Z,8.88
2019-03-28T07:13:38.736Z,8.81
2019-03-28T07:14:38.715Z,8.83
2019-03-28T07:15:38.738Z,8.94
2019-03-28T07:16:38.696Z,8.93
2019-03-28T07:17:38.687Z,8.97
2019-03-28T07:18:38.675Z,8.97
2019-03-28T07:19:38.675Z,9.04
2019-03-28T07:20:38.685Z,9.01
2019-03-28T07:21:38.646Z,8.97
2019-03-28T07:22:38.629Z,8.97
2019-03-28T07:23:38.623Z,8.99
2019-03-28T07:24:38.616Z,8.88
2019-03-28T07:25:38.627Z,9.04
2019-03-28T07:26:38.609Z,9.06
2019-03-28T07:27:38.591Z,9.21
2019-03-28T07:28:38.565Z,9.27
2019-03-28T07:29:50.321Z,9.31
2019-03-28T07:30:39.585Z,9.35
2019-03-28T07:31:38.548Z,9.46
2019-03-28T07:32:38.522Z,9.48
2019-03-28T07:33:38.517Z,9.53
2019-03-28T07:34:38.513Z,9.52
2019-03-28T07:35:38.514Z,9.63
2019-03-28T07:36:38.488Z,9.79
2019-03-28T07:37:38.764Z,9.83
2019-03-28T07:38:38.468Z,9.86
2019-03-28T07:39:38.469Z,9.91
2019-03-28T07:40:38.463Z,9.94
2019-03-28T07:41:38.464Z,10.03
2019-03-28T07:42:38.427Z,9.96
2019-03-28T07:43:38.405Z,9.91
2019-03-28T07:44:38.399Z,9.85
2019-03-28T07:45:38.413Z,9.85
2019-03-28T07:46:38.379Z,10.01
2019-03-28T07:47:38.369Z,9.91
2019-03-28T07:48:38.357Z,9.83
2019-03-28T07:49:38.345Z,9.76
2019-03-28T07:50:38.375Z,9.63
2019-03-28T07:51:38.324Z,9.63
2019-03-28T07:52:38.318Z,9.68
2019-03-28T07:53:38.316Z,9.64
2019-03-28T07:54:39.326Z,9.79
2019-03-28T07:55:38.322Z,9.91
2019-03-28T07:56:38.272Z,9.86
2019-03-28T07:57:38.269Z,9.99
2019-03-28T07:58:38.252Z,9.93
2019-03-28T07:59:38.239Z,10.00
2019-03-28T08:00:38.255Z,9.82
2019-03-28T08:01:38.219Z,9.85
2019-03-28T08:02:38.216Z,9.97
2019-03-28T08:03:39.943Z,10.10
2019-03-28T08:04:38.186Z,10.39
2019-03-28T08:05:38.196Z,10.56
2019-03-28T08:06:49.071Z,10.60
2019-03-28T08:07:44.802Z,10.77
2019-03-28T08:08:39.210Z,10.83
2019-03-28T08:09:38.131Z,10.74
2019-03-28T08:10:38.177Z,10.52
2019-03-28T08:11:38.793Z,10.59
2019-03-28T08:12:38.099Z,10.63
2019-03-28T08:13:38.097Z,10.81
2019-03-28T08:14:38.081Z,10.83
2019-03-28T08:15:38.134Z,11.06
2019-03-28T08:16:38.066Z,11.02
2019-03-28T08:17:38.049Z,10.99
2019-03-28T08:18:38.041Z,11.09
2019-03-28T08:19:41.390Z,10.91
2019-03-28T08:20:38.042Z,11.02
2019-03-28T08:21:38.000Z,11.28
2019-03-28T08:22:38.014Z,11.47
2019-03-28T08:23:38.004Z,11.36
2019-03-28T08:24:37.971Z,11.61
2019-03-28T08:25:38.006Z,11.67
2019-03-28T08:26:37.956Z,11.25
2019-03-28T08:27:37.940Z,11.02
2019-03-28T08:28:38.008Z,10.94
2019-03-28T08:29:37.928Z,11.01
2019-03-28T08:30:37.943Z,11.28
2019-03-28T08:31:40.561Z,11.50
2019-03-28T08:32:39.738Z,11.57
2019-03-28T08:33:37.878Z,11.71
2019-03-28T08:34:37.878Z,11.50
2019-03-28T08:35:37.889Z,11.74
2019-03-28T08:36:37.850Z,11.80
2019-03-28T08:37:37.840Z,11.54
2019-03-28T08:38:37.847Z,11.68
2019-03-28T08:39:37.819Z,11.71
2019-03-28T08:40:39.750Z,11.99
2019-03-28T08:41:37.807Z,12.13
2019-03-28T08:42:37.783Z,12.79
2019-03-28T08:43:37.772Z,12.93
2019-03-28T08:44:38.553Z,13.58
2019-03-28T08:45:37.786Z,13.95
2019-03-28T08:46:37.752Z,14.21
2019-03-28T08:47:37.732Z,13.92
2019-03-28T08:48:37.717Z,13.94
2019-03-28T08:49:37.705Z,13.79
2019-03-28T08:50:37.735Z,13.58
2019-03-28T08:51:37.689Z,13.59
2019-03-28T08:52:37.689Z,13.61
2019-03-28T08:53:37.669Z,13.38
2019-03-28T08:54:37.653Z,13.25
2019-03-28T08:55:37.679Z,13.02
2019-03-28T08:56:37.641Z,13.21
2019-03-28T08:57:37.635Z,13.54
2019-03-28T08:58:38.231Z,13.56
2019-03-28T08:59:37.601Z,13.29
2019-03-28T09:00:51.045Z,12.89
2019-03-28T09:01:38.583Z,12.70
2019-03-28T09:02:37.571Z,13.06
2019-03-28T09:03:37.564Z,13.49
2019-03-28T09:04:37.557Z,13.61
2019-03-28T09:05:37.569Z,13.56
2019-03-28T09:06:37.528Z,13.73
2019-03-28T09:07:37.516Z,13.94
2019-03-28T09:08:37.511Z,14.14
2019-03-28T09:09:37.499Z,14.42
2019-03-28T09:10:37.511Z,14.54
2019-03-28T09:11:37.473Z,14.81
2019-03-28T09:12:37.461Z,15.08
2019-03-28T09:13:37.459Z,15.51
2019-03-28T09:14:37.448Z,15.96
2019-03-28T09:15:43.781Z,16.33
2019-03-28T09:16:38.430Z,16.49
2019-03-28T09:17:37.414Z,15.94
2019-03-28T09:18:37.401Z,16.15
2019-03-28T09:19:39.006Z,15.81
2019-03-28T09:20:37.408Z,15.79
2019-03-28T09:21:37.371Z,15.61
2019-03-28T09:22:38.999Z,15.76
2019-03-28T09:23:37.370Z,15.57
2019-03-28T09:24:37.334Z,15.81
2019-03-28T09:25:37.356Z,16.15
2019-03-28T09:26:37.330Z,16.44
2019-03-28T09:27:37.312Z,16.77
2019-03-28T09:28:37.294Z,16.31
2019-03-28T09:29:37.366Z,16.31
2019-03-28T09:30:48.002Z,16.42
2019-03-28T09:31:38.266Z,16.77
2019-03-28T09:32:37.253Z,16.67
2019-03-28T09:33:40.470Z,16.71
2019-03-28T09:34:37.234Z,16.03
2019-03-28T09:35:37.265Z,14.80
2019-03-28T09:36:37.208Z,14.64
2019-03-28T09:37:37.207Z,14.53
2019-03-28T09:38:37.203Z,14.62
2019-03-28T09:39:37.182Z,14.34
2019-03-28T09:40:37.359Z,14.64
2019-03-28T09:41:37.152Z,15.01
2019-03-28T09:42:37.144Z,14.94
2019-03-28T09:43:37.159Z,14.57
2019-03-28T09:44:37.199Z,14.62
2019-03-28T09:45:37.163Z,14.62
2019-03-28T09:46:37.108Z,14.44
2019-03-28T09:47:37.103Z,14.65
2019-03-28T09:48:37.081Z,14.74
2019-03-28T09:49:37.077Z,14.91
2019-03-28T09:50:37.101Z,15.28
2019-03-28T09:51:37.050Z,15.64
2019-03-28T09:52:37.052Z,16.20
2019-03-28T09:53:37.030Z,16.50
2019-03-28T09:54:37.034Z,16.96
2019-03-28T09:55:37.032Z,17.11
2019-03-28T09:56:37.000Z,16.60
2019-03-28T09:57:36.989Z,16.00
2019-03-28T09:58:36.988Z,14.74
2019-03-28T09:59:36.964Z,14.39
2019-03-28T10:00:36.982Z,14.71
2019-03-28T10:01:36.947Z,14.38
2019-03-28T10:02:36.953Z,14.75
2019-03-28T10:03:36.923Z,14.49
2019-03-28T10:04:36.917Z,14.13
2019-03-28T10:05:38.253Z,13.87
2019-03-28T10:06:36.912Z,13.70
2019-03-28T10:07:38.479Z,13.46
2019-03-28T10:08:36.873Z,13.76
2019-03-28T10:09:36.862Z,14.02
2019-03-28T10:10:36.881Z,14.09
2019-03-28T10:11:36.839Z,14.57
2019-03-28T10:12:36.837Z,14.83
2019-03-28T10:13:36.832Z,14.61
2019-03-28T10:14:36.805Z,14.81
2019-03-28T10:15:37.260Z,14.61
2019-03-28T10:16:37.129Z,14.27
2019-03-28T10:17:36.774Z,14.06
2019-03-28T10:18:36.766Z,13.91
2019-03-28T10:19:36.753Z,13.41
2019-03-28T10:20:36.789Z,13.27
2019-03-28T10:21:37.633Z,13.46
2019-03-28T10:22:36.722Z,13.83
2019-03-28T10:23:39.728Z,14.01
2019-03-28T10:24:36.717Z,14.28
2019-03-28T10:25:36.718Z,14.27
2019-03-28T10:26:36.677Z,14.24
2019-03-28T10:27:36.670Z,14.25
2019-03-28T10:28:36.659Z,14.13
2019-03-28T10:29:36.649Z,13.88
2019-03-28T10:30:36.658Z,13.67
2019-03-28T10:31:36.626Z,13.80
2019-03-28T10:32:36.626Z,14.39
2019-03-28T10:33:36.614Z,14.93
2019-03-28T10:34:36.595Z,15.30
2019-03-28T10:35:36.622Z,15.15
2019-03-28T10:36:36.599Z,14.35
2019-03-28T10:37:36.557Z,14.31
2019-03-28T10:38:36.554Z,15.01
2019-03-28T10:39:36.543Z,15.15
2019-03-28T10:40:36.689Z,15.33
2019-03-28T10:41:39.684Z,15.57
2019-03-28T10:42:36.517Z,15.61
2019-03-28T10:43:36.499Z,15.85
2019-03-28T10:44:36.498Z,15.84
2019-03-28T10:45:36.509Z,15.67
2019-03-28T10:46:36.486Z,15.23
2019-03-28T10:47:36.465Z,14.90
2019-03-28T10:48:36.454Z,14.65
2019-03-28T10:49:36.441Z,15.13
2019-03-28T10:50:41.640Z,14.99
2019-03-28T10:51:37.466Z,14.65
2019-03-28T10:52:36.405Z,14.99
2019-03-28T10:53:36.410Z,15.01
2019-03-28T10:54:36.393Z,15.20
2019-03-28T10:55:36.399Z,15.27
2019-03-28T10:56:45.796Z,14.32
2019-03-28T10:57:37.359Z,13.91
2019-03-28T10:58:36.341Z,14.19
2019-03-28T10:59:36.345Z,14.57
2019-03-28T11:00:36.357Z,14.65
2019-03-28T11:01:48.011Z,14.71
2019-03-28T11:02:37.304Z,15.27
2019-03-28T11:03:36.285Z,15.51
2019-03-28T11:04:36.276Z,15.03
2019-03-28T11:05:36.293Z,14.90
2019-03-28T11:06:36.258Z,15.27
2019-03-28T11:07:36.246Z,14.75
2019-03-28T11:08:36.763Z,14.80
2019-03-28T11:09:36.251Z,14.99
2019-03-28T11:10:36.243Z,15.21
2019-03-28T11:11:36.214Z,15.39
2019-03-28T11:12:36.195Z,15.70
2019-03-28T11:13:36.178Z,16.33
2019-03-28T11:14:36.174Z,16.80
2019-03-28T11:15:36.191Z,17.23
2019-03-28T11:16:36.158Z,17.44
2019-03-28T11:17:36.142Z,17.71
2019-03-28T11:18:36.122Z,17.30
2019-03-28T11:19:36.114Z,17.41
2019-03-28T11:20:39.811Z,16.67
2019-03-28T11:21:36.096Z,15.82
2019-03-28T11:22:44.966Z,14.88
2019-03-28T11:23:36.068Z,14.56
2019-03-28T11:24:36.066Z,14.95
2019-03-28T11:25:36.079Z,15.06
2019-03-28T11:26:36.038Z,15.08
2019-03-28T11:27:36.036Z,14.56
2019-03-28T11:28:36.030Z,14.42
2019-03-28T11:29:36.001Z,14.31
2019-03-28T11:30:36.029Z,13.76
2019-03-28T11:31:46.138Z,13.54
2019-03-28T11:32:36.968Z,13.71
2019-03-28T11:33:35.968Z,13.56
2019-03-28T11:34:35.974Z,13.46
2019-03-28T11:35:36.061Z,13.40
2019-03-28T11:36:35.953Z,13.37
2019-03-28T11:37:35.942Z,13.44
2019-03-28T11:38:35.924Z,13.24
2019-03-28T11:39:35.915Z,13.33
2019-03-28T11:40:35.949Z,13.40
2019-03-28T11:41:35.890Z,13.15
2019-03-28T11:42:35.894Z,13.12
2019-03-28T11:43:35.889Z,13.29
2019-03-28T11:44:35.857Z,13.65
2019-03-28T11:45:35.859Z,13.59
2019-03-28T11:46:35.864Z,13.55
2019-03-28T11:47:35.831Z,13.55
2019-03-28T11:48:35.835Z,13.52
2019-03-28T11:49:35.794Z,13.33
2019-03-28T11:50:35.801Z,13.24
2019-03-28T11:51:36.451Z,13.11
2019-03-28T11:52:35.768Z,13.11
2019-03-28T11:53:35.760Z,13.07
2019-03-28T11:54:35.802Z,13.18
2019-03-28T11:55:35.742Z,13.22
2019-03-28T11:56:35.766Z,12.95
2019-03-28T11:57:35.727Z,12.88
2019-03-28T11:58:35.711Z,12.87
2019-03-28T11:59:35.702Z,12.79
2019-03-28T12:00:35.710Z,12.95
2019-03-28T12:01:35.710Z,12.69
2019-03-28T12:02:35.665Z,12.88
2019-03-28T12:03:35.650Z,13.04
2019-03-28T12:04:38.648Z,13.15
2019-03-28T12:05:35.636Z,13.37
2019-03-28T12:06:35.653Z,13.65
2019-03-28T12:07:35.607Z,13.69
2019-03-28T12:08:35.613Z,13.44
2019-03-28T12:09:35.589Z,13.25
2019-03-28T12:10:35.582Z,13.56
2019-03-28T12:11:35.607Z,13.52
2019-03-28T12:12:35.563Z,13.47
2019-03-28T12:13:44.689Z,13.37
2019-03-28T12:14:36.535Z,13.62
2019-03-28T12:15:35.518Z,13.81
2019-03-28T12:16:35.555Z,13.91
2019-03-28T12:17:35.510Z,13.88
2019-03-28T12:18:35.503Z,13.87
2019-03-28T12:19:35.472Z,13.91
2019-03-28T12:20:35.469Z,13.74
2019-03-28T12:21:35.498Z,13.67
2019-03-28T12:22:35.450Z,13.52
2019-03-28T12:23:35.439Z,13.56
2019-03-28T12:24:35.419Z,13.67
2019-03-28T12:25:35.413Z,13.88
2019-03-28T12:26:35.431Z,14.29
2019-03-28T12:27:35.400Z,14.24
2019-03-28T12:28:35.378Z,14.12
2019-03-28T12:29:35.919Z,13.92
2019-03-28T12:30:35.363Z,13.80
2019-03-28T12:31:35.378Z,13.69
2019-03-28T12:32:35.340Z,13.51
2019-03-28T12:33:35.326Z,13.55
2019-03-28T12:34:35.325Z,13.61
2019-03-28T12:35:35.324Z,13.76
2019-03-28T12:36:35.357Z,13.70
2019-03-28T12:37:35.308Z,13.74
2019-03-28T12:38:35.275Z,13.59
2019-03-28T12:39:35.289Z,13.76
2019-03-28T12:40:35.264Z,13.98
2019-03-28T12:41:35.288Z,13.99
2019-03-28T12:42:35.233Z,14.10
2019-03-28T12:43:35.222Z,14.42
2019-03-28T12:44:35.203Z,14.39
2019-03-28T12:45:35.215Z,14.10
2019-03-28T12:46:35.221Z,14.16
2019-03-28T12:47:42.219Z,14.21
2019-03-28T12:48:36.155Z,14.52
2019-03-28T12:49:35.160Z,14.42
2019-03-28T12:50:35.143Z,13.77
2019-03-28T12:51:35.164Z,13.51
2019-03-28T12:52:35.148Z,13.61
2019-03-28T12:53:35.105Z,13.67
2019-03-28T12:54:35.115Z,13.73
2019-03-28T12:55:35.102Z,13.55
2019-03-28T12:56:35.109Z,13.56
2019-03-28T12:57:35.079Z,13.54
2019-03-28T12:58:35.064Z,13.24
2019-03-28T12:59:35.065Z,13.14
2019-03-28T13:00:35.048Z,12.95
2019-03-28T13:01:35.068Z,12.93
2019-03-28T13:02:35.024Z,12.89
2019-03-28T13:03:45.290Z,12.74
2019-03-28T13:04:36.009Z,12.88
2019-03-28T13:05:35.104Z,12.97
2019-03-28T13:06:35.018Z,12.93
2019-03-28T13:07:34.966Z,13.24
2019-03-28T13:08:34.961Z,13.27
2019-03-28T13:09:35.770Z,13.21